Time;durP1;ratioP1;P1;durP2;ratioP2;P2;SDS_P1;SDS_P2;PMS_P1;PMS_P2;Temp;Humidity;BMP_temperature;BMP_pressure;BME280_temperature;BME280_humidity;BME280_pressure;Samples;Min_cycle;Max_cycle;Signal;HPM_P1;HPM_P2
2022/08/20 00:00:14;;;;;;;44.63;24.25;;;;;;;18.69;100.00;101297.75;173289;28;1112;-64
2022/08/20 00:00:24;;;;;;;43.61;24.17;;;;;;;18.70;100.00;101295.91;173326;28;1256;-64
2022/08/20 00:00:34;;;;;;;43.85;24.10;;;;;;;18.74;100.00;101290.31;173228;28;1170;-64
2022/08/20 00:00:46;;;;;;;42.73;23.76;;;;;;;18.78;100.00;101296.22;173299;28;1260;-64
2022/08/20 00:00:55;;;;;;;43.49;23.65;;;;;;;18.81;100.00;101303.13;173308;28;1258;-63
2022/08/20 00:01:02;;;;;;;43.22;23.75;;;;;;;18.81;100.00;101300.47;173289;28;983;-63
2022/08/20 00:01:07;;;;;;;42.24;23.54;;;;;;;18.82;100.00;101299.53;173307;28;879;-63
2022/08/20 00:01:13;;;;;;;41.97;23.55;;;;;;;18.83;100.00;101298.56;173300;28;946;-63
2022/08/20 00:01:18;;;;;;;40.87;23.77;;;;;;;18.82;100.00;101297.69;173318;28;937;-63
2022/08/20 00:01:24;;;;;;;40.07;23.70;;;;;;;18.83;100.00;101302.06;173324;28;851;-63
2022/08/20 00:01:29;;;;;;;40.33;23.53;;;;;;;18.84;100.00;101301.09;173361;28;1052;-63
2022/08/20 00:01:35;;;;;;;40.70;23.38;;;;;;;18.84;100.00;101300.25;173321;28;1061;-63
2022/08/20 00:01:40;;;;;;;41.43;23.30;;;;;;;18.84;100.00;101301.09;173224;28;990;-63
2022/08/20 00:01:46;;;;;;;42.08;23.20;;;;;;;18.86;100.00;101301.00;173337;28;855;-64
2022/08/20 00:01:52;;;;;;;42.22;23.15;;;;;;;18.85;100.00;101301.94;173326;28;1037;-64
2022/08/20 00:01:57;;;;;;;42.17;23.10;;;;;;;18.86;100.00;101301.00;173396;28;811;-63
2022/08/20 00:02:03;;;;;;;42.77;23.37;;;;;;;18.85;100.00;101297.50;173323;28;917;-63
2022/08/20 00:02:09;;;;;;;43.06;23.42;;;;;;;18.86;100.00;101293.06;173321;28;992;-63
2022/08/20 00:02:15;;;;;;;41.83;23.05;;;;;;;18.87;100.00;101303.53;173322;28;1116;-63
2022/08/20 00:02:20;;;;;;;41.33;22.73;;;;;;;18.86;100.00;101299.19;173343;28;895;-64
2022/08/20 00:02:26;;;;;;;42.03;22.75;;;;;;;18.87;100.00;101297.38;173376;28;862;-63
2022/08/20 00:02:40;;;;;;;41.03;22.43;;;;;;;18.87;100.00;101295.59;173292;28;1006;-63
2022/08/20 00:02:50;;;;;;;41.44;22.51;;;;;;;18.87;100.00;101292.09;173163;28;1794;-63
2022/08/20 00:03:02;;;;;;;43.41;23.19;;;;;;;18.88;100.00;101296.41;173312;28;1260;-63
2022/08/20 00:03:18;;;;;;;43.85;23.52;;;;;;;18.88;100.00;101299.06;173306;28;1263;-64
2022/08/20 00:03:31;;;;;;;44.24;23.58;;;;;;;18.86;100.00;101303.63;173329;28;1386;-63
2022/08/20 00:03:40;;;;;;;44.26;23.45;;;;;;;18.79;100.00;101296.13;173245;28;2413;-63
2022/08/20 00:03:46;;;;;;;44.29;23.53;;;;;;;18.83;100.00;101298.56;172590;28;1073;-63
2022/08/20 00:03:51;;;;;;;44.07;23.33;;;;;;;18.83;100.00;101303.84;172628;28;863;-63
2022/08/20 00:03:57;;;;;;;44.30;23.25;;;;;;;18.84;100.00;101300.25;172671;28;1053;-63
2022/08/20 00:04:02;;;;;;;43.33;23.10;;;;;;;18.84;100.00;101301.09;171932;28;820;-63
2022/08/20 00:04:08;;;;;;;42.80;23.02;;;;;;;18.85;100.00;101291.38;171937;28;963;-64
2022/08/20 00:04:13;;;;;;;41.93;23.07;;;;;;;18.84;100.00;101294.94;171958;28;954;-63
2022/08/20 00:04:19;;;;;;;42.00;23.10;;;;;;;18.85;100.00;101300.13;171961;28;844;-63
2022/08/20 00:04:24;;;;;;;42.70;23.47;;;;;;;18.85;100.00;101301.94;172037;28;922;-63
2022/08/20 00:04:29;;;;;;;43.20;23.75;;;;;;;18.85;100.00;101301.94;171954;28;918;-63
2022/08/20 00:04:35;;;;;;;43.27;23.80;;;;;;;18.86;100.00;101298.34;171929;28;891;-63
2022/08/20 00:04:41;;;;;;;43.10;23.88;;;;;;;18.84;100.00;101300.25;171929;28;926;-63
2022/08/20 00:04:47;;;;;;;42.75;24.00;;;;;;;18.85;100.00;101301.94;172621;28;801;-63
2022/08/20 00:04:52;;;;;;;40.80;23.87;;;;;;;18.84;100.00;101300.25;172660;28;831;-63
2022/08/20 00:04:57;;;;;;;40.33;23.73;;;;;;;18.84;100.00;101305.53;172687;28;1049;-63
2022/08/20 00:05:03;;;;;;;39.65;23.83;;;;;;;18.84;100.00;101297.59;172651;28;719;-64
2022/08/20 00:05:10;;;;;;;38.57;23.43;;;;;;;18.84;100.00;101300.25;172659;28;927;-64
2022/08/20 00:05:24;;;;;;;38.57;23.37;;;;;;;18.82;100.00;101297.69;172650;28;891;-63
2022/08/20 00:05:36;;;;;;;40.51;23.42;;;;;;;18.82;100.00;101297.69;172591;28;1250;-64
2022/08/20 00:05:51;;;;;;;42.03;23.56;;;;;;;18.84;100.00;101294.94;172598;28;1267;-63
2022/08/20 00:06:07;;;;;;;40.69;23.31;;;;;;;18.85;100.00;101296.66;172631;28;1249;-64
2022/08/20 00:06:19;;;;;;;39.04;22.65;;;;;;;18.84;100.00;101293.16;172602;28;1267;-63
2022/08/20 00:06:25;;;;;;;39.38;22.61;;;;;;;18.85;100.00;101296.66;172646;28;1258;-63
2022/08/20 00:06:30;;;;;;;39.23;22.73;;;;;;;18.86;100.00;101295.69;172635;28;1033;-63
2022/08/20 00:06:39;;;;;;;39.30;22.77;;;;;;;18.85;100.00;101284.28;173352;28;875;-63
2022/08/20 00:06:44;;;;;;;40.03;22.78;;;;;;;18.86;100.00;101293.06;173254;28;1005;-64
2022/08/20 00:06:49;;;;;;;40.72;22.98;;;;;;;18.87;100.00;101300.88;173302;28;1037;-65
2022/08/20 00:06:55;;;;;;;39.33;22.93;;;;;;;18.87;100.00;101294.75;173389;28;898;-65
2022/08/20 00:07:00;;;;;;;39.57;23.43;;;;;;;18.86;100.00;101293.91;173198;28;1662;-64
2022/08/20 00:07:06;;;;;;;39.78;23.58;;;;;;;18.87;100.00;101300.03;173302;28;871;-64
2022/08/20 00:07:13;;;;;;;39.37;23.77;;;;;;;18.88;100.00;101301.72;173316;28;986;-64
2022/08/20 00:07:19;;;;;;;38.22;23.77;;;;;;;18.87;100.00;101290.31;173270;28;1081;-65
2022/08/20 00:07:24;;;;;;;37.13;23.53;;;;;;;18.88;100.00;101297.28;173324;28;1044;-64
2022/08/20 00:07:29;;;;;;;36.47;23.10;;;;;;;18.88;100.00;101296.41;173311;28;922;-64
2022/08/20 00:07:35;;;;;;;36.78;23.00;;;;;;;18.88;100.00;101294.63;173323;28;938;-64
2022/08/20 00:07:40;;;;;;;37.53;22.67;;;;;;;18.88;100.00;101289.34;173350;28;985;-64
2022/08/20 00:07:46;;;;;;;38.60;22.60;;;;;;;18.89;100.00;101298.13;173304;28;978;-65
2022/08/20 00:07:51;;;;;;;39.47;22.63;;;;;;;18.89;100.00;101288.38;173291;28;1100;-64
2022/08/20 00:07:57;;;;;;;40.58;22.67;;;;;;;18.86;100.00;101299.19;173318;28;846;-64
2022/08/20 00:08:04;;;;;;;40.15;22.77;;;;;;;18.80;100.00;101291.69;173320;28;922;-64
2022/08/20 00:08:10;;;;;;;39.20;22.97;;;;;;;18.82;100.00;101289.75;173324;28;1163;-64
2022/08/20 00:08:15;;;;;;;38.34;22.80;;;;;;;18.83;100.00;101288.84;173288;28;1140;-64
2022/08/20 00:08:22;;;;;;;38.60;22.60;;;;;;;18.84;100.00;101297.59;173256;28;911;-64
2022/08/20 00:08:28;;;;;;;38.83;22.90;;;;;;;18.84;100.00;101289.66;173368;28;978;-64
2022/08/20 00:08:34;;;;;;;40.10;23.12;;;;;;;18.85;100.00;101286.09;173306;28;1151;-64
2022/08/20 00:08:40;;;;;;;41.17;23.33;;;;;;;18.87;100.00;101294.75;173298;28;863;-64
2022/08/20 00:08:47;;;;;;;40.64;23.38;;;;;;;18.88;100.00;101296.41;173169;28;1434;-64
2022/08/20 00:08:52;;;;;;;40.45;23.35;;;;;;;18.87;100.00;101285.03;173147;28;1073;-64
2022/08/20 00:08:57;;;;;;;40.70;23.10;;;;;;;18.87;100.00;101295.59;173333;28;1096;-65
2022/08/20 00:09:03;;;;;;;40.37;23.03;;;;;;;18.88;100.00;101299.06;173286;28;699;-64
2022/08/20 00:09:09;;;;;;;39.42;22.98;;;;;;;18.88;100.00;101299.91;173294;28;1084;-64
2022/08/20 00:09:14;;;;;;;39.53;23.00;;;;;;;18.88;100.00;101296.41;173350;28;894;-64
2022/08/20 00:09:20;;;;;;;39.80;23.25;;;;;;;18.86;100.00;101301.84;173334;28;871;-64
2022/08/20 00:09:25;;;;;;;39.97;23.77;;;;;;;18.86;100.00;101293.06;173257;28;1457;-64
2022/08/20 00:09:31;;;;;;;39.33;23.80;;;;;;;18.86;100.00;101293.06;173299;28;891;-65
2022/08/20 00:09:36;;;;;;;40.77;23.90;;;;;;;18.86;100.00;101298.34;173348;28;760;-64
2022/08/20 00:09:43;;;;;;;41.60;23.98;;;;;;;18.86;100.00;101293.06;173301;28;855;-64
2022/08/20 00:09:49;;;;;;;40.67;23.90;;;;;;;18.87;100.00;101295.59;173333;28;891;-64
2022/08/20 00:09:54;;;;;;;40.63;23.53;;;;;;;18.87;100.00;101295.59;173371;28;854;-64
2022/08/20 00:09:59;;;;;;;41.47;23.60;;;;;;;18.87;100.00;101294.75;173316;28;1108;-64
2022/08/20 00:10:08;;;;;;;41.03;23.50;;;;;;;18.86;100.00;101298.34;173321;28;906;-64
2022/08/20 00:10:13;;;;;;;40.53;23.28;;;;;;;18.86;100.00;101295.69;173295;28;977;-64
2022/08/20 00:10:21;;;;;;;40.88;23.20;;;;;;;18.85;100.00;101294.84;173341;28;891;-64
2022/08/20 00:10:29;;;;;;;40.77;23.27;;;;;;;18.86;100.00;101299.19;173319;28;1054;-64
2022/08/20 00:10:39;;;;;;;41.55;23.45;;;;;;;18.87;100.00;101294.75;173299;28;1065;-64
2022/08/20 00:10:47;;;;;;;42.49;23.63;;;;;;;18.88;100.00;101291.13;173315;28;1162;-64
2022/08/20 00:10:54;;;;;;;43.25;23.43;;;;;;;18.84;100.00;101294.94;173258;28;1097;-65
2022/08/20 00:11:01;;;;;;;42.26;23.24;;;;;;;18.81;100.00;101284.63;173207;28;1459;-65
2022/08/20 00:11:11;;;;;;;41.33;23.13;;;;;;;18.83;100.00;101288.84;173354;28;950;-64
2022/08/20 00:11:24;;;;;;;40.29;23.02;;;;;;;18.87;100.00;101292.09;173275;28;1168;-64
2022/08/20 00:11:32;;;;;;;41.44;23.46;;;;;;;18.83;100.00;101287.97;173165;28;1407;-64
2022/08/20 00:11:37;;;;;;;40.93;23.28;;;;;;;18.68;100.00;101296.03;173381;28;970;-64
2022/08/20 00:11:43;;;;;;;41.80;23.43;;;;;;;18.65;100.00;101286.53;173353;28;1042;-64
2022/08/20 00:11:48;;;;;;;41.40;23.30;;;;;;;18.68;100.00;101290.75;173348;28;1085;-64
2022/08/20 00:11:54;;;;;;;41.00;23.30;;;;;;;18.71;100.00;101282.59;173317;28;1116;-64
2022/08/20 00:12:00;;;;;;;40.73;23.63;;;;;;;18.73;100.00;101288.63;173344;28;851;-64
2022/08/20 00:12:08;;;;;;;41.70;23.92;;;;;;;18.74;100.00;101292.97;173292;28;1101;-64
2022/08/20 00:12:16;;;;;;;40.20;23.63;;;;;;;18.77;100.00;101290.13;173282;28;1015;-64
2022/08/20 00:12:21;;;;;;;39.00;23.33;;;;;;;18.79;100.00;101293.47;173348;28;1077;-64
2022/08/20 00:12:28;;;;;;;37.30;22.60;;;;;;;18.77;100.00;101292.75;173332;28;911;-64
2022/08/20 00:12:35;;;;;;;38.06;22.22;;;;;;;18.81;100.00;101289.91;173366;28;1114;-64
2022/08/20 00:12:48;;;;;;;38.46;22.14;;;;;;;18.82;100.00;101291.59;173311;28;1002;-64
2022/08/20 00:12:54;;;;;;;39.64;22.60;;;;;;;18.82;100.00;101291.59;173330;28;1255;-64
2022/08/20 00:13:02;;;;;;;41.50;23.00;;;;;;;18.82;100.00;101291.59;173303;28;1085;-64
2022/08/20 00:13:11;;;;;;;41.93;23.67;;;;;;;18.84;100.00;101289.66;173369;28;1018;-64
2022/08/20 00:13:26;;;;;;;42.43;23.74;;;;;;;18.84;100.00;101294.94;173327;28;1090;-64
2022/08/20 00:13:42;;;;;;;42.38;23.45;;;;;;;18.85;100.00;101281.63;173325;28;1257;-65
2022/08/20 00:13:55;;;;;;;41.29;23.30;;;;;;;18.86;100.00;101293.06;173306;28;1269;-64
2022/08/20 00:14:05;;;;;;;41.53;23.85;;;;;;;18.87;100.00;101284.16;173362;28;1263;-64
2022/08/20 00:14:11;;;;;;;42.10;23.73;;;;;;;18.87;100.00;101284.16;173365;28;1037;-64
2022/08/20 00:14:16;;;;;;;41.50;23.35;;;;;;;18.87;100.00;101289.44;173306;28;935;-64
2022/08/20 00:14:21;;;;;;;41.13;23.23;;;;;;;18.87;100.00;101284.16;173207;28;1038;-64
2022/08/20 00:14:27;;;;;;;40.73;22.83;;;;;;;18.87;100.00;101284.16;173367;28;1096;-65
2022/08/20 00:14:34;;;;;;;39.40;22.83;;;;;;;18.87;100.00;101286.81;173348;28;824;-64
2022/08/20 00:14:40;;;;;;;41.30;22.90;;;;;;;18.88;100.00;101285.84;173344;28;875;-64
2022/08/20 00:14:45;;;;;;;42.55;23.23;;;;;;;18.88;100.00;101286.69;173308;28;1148;-64
2022/08/20 00:14:51;;;;;;;43.43;23.37;;;;;;;18.88;100.00;101280.56;173307;28;910;-64
2022/08/20 00:14:56;;;;;;;43.53;23.70;;;;;;;18.86;100.00;101283.34;173355;28;1084;-65
2022/08/20 00:15:05;;;;;;;43.27;23.77;;;;;;;18.88;100.00;101280.56;173248;28;895;-64
2022/08/20 00:15:14;;;;;;;41.80;23.70;;;;;;;18.88;100.00;101280.56;173269;28;895;-64
2022/08/20 00:15:27;;;;;;;40.73;23.49;;;;;;;18.87;100.00;101278.88;173154;28;1084;-64
2022/08/20 00:15:36;;;;;;;39.53;23.30;;;;;;;18.89;100.00;101282.28;173276;28;1265;-64
2022/08/20 00:15:42;;;;;;;39.60;23.50;;;;;;;18.88;100.00;101286.69;173278;28;1192;-64
2022/08/20 00:15:49;;;;;;;39.45;23.27;;;;;;;18.88;100.00;101280.56;173310;28;851;-64
2022/08/20 00:15:55;;;;;;;39.72;23.22;;;;;;;18.88;100.00;101278.78;173295;28;935;-64
2022/08/20 00:16:01;;;;;;;39.03;22.88;;;;;;;18.89;100.00;101282.28;173260;28;907;-64
2022/08/20 00:16:08;;;;;;;38.85;22.63;;;;;;;18.90;100.00;101281.31;172412;28;1434;-64
2022/08/20 00:16:16;;;;;;;39.00;22.64;;;;;;;18.90;100.00;101278.66;172619;28;1002;-64
2022/08/20 00:16:26;;;;;;;38.77;23.00;;;;;;;18.88;100.00;101280.56;172676;28;954;-64
2022/08/20 00:16:36;;;;;;;38.66;23.14;;;;;;;18.89;100.00;101287.56;172609;28;1190;-64
2022/08/20 00:16:42;;;;;;;38.86;23.26;;;;;;;18.87;100.00;101273.59;172581;28;1177;-64
2022/08/20 00:16:47;;;;;;;39.50;22.95;;;;;;;18.86;100.00;101277.19;172618;28;1049;-64
2022/08/20 00:16:53;;;;;;;41.57;23.07;;;;;;;18.88;100.00;101280.56;172567;28;875;-64
2022/08/20 00:16:59;;;;;;;41.87;23.07;;;;;;;18.87;100.00;101279.72;172704;28;1037;-64
2022/08/20 00:17:05;;;;;;;42.22;23.10;;;;;;;18.88;100.00;101275.28;172616;28;1112;-64
2022/08/20 00:17:10;;;;;;;43.75;23.77;;;;;;;18.87;100.00;101278.88;172533;28;977;-64
2022/08/20 00:17:15;;;;;;;45.00;24.20;;;;;;;18.86;100.00;101278.06;172631;28;895;-64
2022/08/20 00:17:21;;;;;;;43.07;24.20;;;;;;;18.87;100.00;101276.22;172629;28;695;-64
2022/08/20 00:17:32;;;;;;;43.05;24.55;;;;;;;18.86;100.00;101282.47;172679;28;1049;-64
2022/08/20 00:17:39;;;;;;;42.95;24.24;;;;;;;18.84;100.00;101277.31;171850;28;1498;-64
2022/08/20 00:17:44;;;;;;;40.73;23.53;;;;;;;18.85;100.00;101275.50;171994;28;1078;-64
2022/08/20 00:17:51;;;;;;;41.03;23.45;;;;;;;18.85;100.00;101278.16;171984;28;1054;-64
2022/08/20 00:17:58;;;;;;;41.83;23.50;;;;;;;18.85;100.00;101276.34;172044;28;773;-64
2022/08/20 00:18:06;;;;;;;40.90;23.60;;;;;;;18.86;100.00;101274.56;171946;28;1124;-64
2022/08/20 00:18:13;;;;;;;40.82;23.68;;;;;;;18.85;100.00;101276.34;171943;28;994;-64
2022/08/20 00:18:20;;;;;;;39.78;23.58;;;;;;;18.85;100.00;101270.22;171930;28;919;-64
2022/08/20 00:18:26;;;;;;;39.20;23.33;;;;;;;18.86;100.00;101279.84;172028;28;880;-64
2022/08/20 00:18:32;;;;;;;39.05;23.40;;;;;;;18.86;100.00;101282.47;171942;28;959;-64
2022/08/20 00:18:41;;;;;;;39.25;23.27;;;;;;;18.85;100.00;101276.34;171946;28;911;-64
2022/08/20 00:18:47;;;;;;;42.61;23.56;;;;;;;18.85;100.00;101270.22;171945;28;1197;-64
2022/08/20 00:18:53;;;;;;;42.23;23.60;;;;;;;18.84;100.00;101268.50;172509;28;958;-65
2022/08/20 00:19:06;;;;;;;42.50;23.38;;;;;;;18.68;100.00;101277.53;172648;28;879;-65
2022/08/20 00:19:11;;;;;;;39.95;22.77;;;;;;;18.58;100.00;101273.84;172620;28;1249;-65
2022/08/20 00:19:17;;;;;;;37.37;22.37;;;;;;;18.53;100.00;101276.81;172573;28;1053;-64
2022/08/20 00:19:22;;;;;;;36.53;22.17;;;;;;;18.49;100.00;101275.34;172660;28;867;-64
2022/08/20 00:19:27;;;;;;;35.43;22.10;;;;;;;18.47;100.00;101278.06;172669;28;765;-64
2022/08/20 00:19:33;;;;;;;35.65;22.10;;;;;;;18.46;100.00;101279.03;171868;28;1736;-64
2022/08/20 00:19:38;;;;;;;35.07;22.23;;;;;;;18.50;100.00;101279.66;172518;28;868;-65
2022/08/20 00:19:44;;;;;;;34.67;22.25;;;;;;;18.50;100.00;101277.88;172633;28;1050;-64
2022/08/20 00:19:49;;;;;;;35.20;22.13;;;;;;;18.53;100.00;101276.81;172615;28;1009;-64
2022/08/20 00:19:55;;;;;;;35.43;22.30;;;;;;;18.53;100.00;101280.31;172608;28;1089;-64
2022/08/20 00:20:00;;;;;;;35.85;22.30;;;;;;;18.55;100.00;101276.72;172686;28;946;-64
2022/08/20 00:20:11;;;;;;;36.00;22.30;;;;;;;18.55;100.00;101277.56;172635;28;848;-64
2022/08/20 00:20:21;;;;;;;36.20;22.36;;;;;;;18.55;100.00;101272.28;172602;28;1256;-64
2022/08/20 00:20:31;;;;;;;36.40;22.45;;;;;;;18.57;100.00;101273.00;172647;28;1167;-64
2022/08/20 00:20:42;;;;;;;37.56;22.58;;;;;;;18.62;100.00;101276.16;172624;28;1171;-64
2022/08/20 00:20:53;;;;;;;37.96;22.34;;;;;;;18.65;100.00;101283.06;172631;28;1250;-64
2022/08/20 00:20:59;;;;;;;38.80;22.20;;;;;;;18.67;100.00;101281.13;172643;28;1168;-64
2022/08/20 00:21:13;;;;;;;38.60;22.14;;;;;;;18.69;100.00;101279.25;172663;28;878;-64
2022/08/20 00:21:21;;;;;;;39.08;22.33;;;;;;;18.71;100.00;101277.31;172597;28;1460;-64
2022/08/20 00:21:27;;;;;;;38.07;22.37;;;;;;;18.71;100.00;101274.66;172698;28;875;-64
2022/08/20 00:21:33;;;;;;;37.80;22.50;;;;;;;18.73;100.00;101275.41;173081;28;1022;-64
2022/08/20 00:21:38;;;;;;;37.67;22.55;;;;;;;18.73;100.00;101275.41;173347;28;966;-64
2022/08/20 00:21:44;;;;;;;36.72;22.45;;;;;;;18.73;100.00;101283.34;173329;28;891;-64
2022/08/20 00:21:49;;;;;;;36.87;22.60;;;;;;;18.74;100.00;101279.75;173338;28;840;-64
2022/08/20 00:21:55;;;;;;;37.13;22.77;;;;;;;18.76;100.00;101277.00;173363;28;915;-64
2022/08/20 00:22:01;;;;;;;37.37;23.20;;;;;;;18.76;100.00;101277.00;173334;28;812;-64
2022/08/20 00:22:06;;;;;;;38.53;23.33;;;;;;;18.76;100.00;101277.84;173361;28;768;-64
2022/08/20 00:22:12;;;;;;;38.73;23.50;;;;;;;18.77;100.00;101279.53;173343;28;836;-64
2022/08/20 00:22:18;;;;;;;39.60;23.50;;;;;;;18.76;100.00;101275.22;173346;28;879;-64
2022/08/20 00:22:24;;;;;;;39.72;23.45;;;;;;;18.78;100.00;101281.22;173340;28;863;-64
2022/08/20 00:22:29;;;;;;;39.28;23.17;;;;;;;18.78;100.00;101281.22;173395;28;871;-64
2022/08/20 00:22:34;;;;;;;38.70;22.97;;;;;;;18.78;100.00;101281.22;173339;28;902;-64
2022/08/20 00:22:40;;;;;;;38.47;22.83;;;;;;;18.78;100.00;101275.94;173337;28;855;-64
2022/08/20 00:22:46;;;;;;;39.37;22.90;;;;;;;18.81;100.00;101279.31;173311;28;1018;-64
2022/08/20 00:22:52;;;;;;;39.97;23.02;;;;;;;18.81;100.00;101274.88;173255;28;1953;-65
2022/08/20 00:22:57;;;;;;;40.53;23.10;;;;;;;18.82;100.00;101281.00;173382;28;1029;-64
2022/08/20 00:23:04;;;;;;;40.50;23.25;;;;;;;18.82;100.00;101276.53;173324;28;1037;-64
2022/08/20 00:23:10;;;;;;;40.67;23.60;;;;;;;18.82;100.00;101276.53;173378;28;974;-64
2022/08/20 00:23:17;;;;;;;38.85;23.45;;;;;;;18.82;100.00;101273.09;173337;28;871;-64
2022/08/20 00:23:24;;;;;;;39.37;23.80;;;;;;;18.82;100.00;101279.19;173341;28;1290;-64
2022/08/20 00:23:29;;;;;;;39.10;23.76;;;;;;;18.82;100.00;101275.72;173334;28;888;-64
2022/08/20 00:23:42;;;;;;;38.53;23.42;;;;;;;18.82;100.00;101286.31;173352;28;1054;-64
2022/08/20 00:23:50;;;;;;;38.60;23.29;;;;;;;18.82;100.00;101276.53;173325;28;1258;-65
2022/08/20 00:23:56;;;;;;;37.87;23.02;;;;;;;18.84;100.00;101276.44;173360;28;1021;-64
2022/08/20 00:24:03;;;;;;;37.32;23.16;;;;;;;18.84;100.00;101273.78;173370;28;890;-65
2022/08/20 00:24:08;;;;;;;36.95;23.25;;;;;;;18.84;100.00;101279.09;173331;28;903;-64
2022/08/20 00:24:14;;;;;;;35.80;23.00;;;;;;;18.83;100.00;101277.41;173265;28;971;-64
2022/08/20 00:24:19;;;;;;;35.17;22.83;;;;;;;18.82;100.00;101275.72;172792;28;796;-65
2022/08/20 00:24:24;;;;;;;35.43;22.70;;;;;;;18.81;100.00;101274.03;172475;28;1084;-64
2022/08/20 00:24:30;;;;;;;36.78;22.48;;;;;;;18.81;100.00;101279.31;172568;28;927;-64
2022/08/20 00:24:35;;;;;;;37.33;22.10;;;;;;;18.82;100.00;101276.53;173350;28;907;-64
2022/08/20 00:24:41;;;;;;;37.97;21.98;;;;;;;18.83;100.00;101274.75;173352;28;847;-64
2022/08/20 00:24:47;;;;;;;38.67;22.13;;;;;;;18.83;100.00;101278.25;173353;28;863;-64
2022/08/20 00:24:52;;;;;;;39.03;22.13;;;;;;;18.83;100.00;101280.06;173340;28;966;-64
2022/08/20 00:24:57;;;;;;;39.67;22.30;;;;;;;18.83;100.00;101277.41;173361;28;1026;-65
2022/08/20 00:25:06;;;;;;;40.13;22.60;;;;;;;18.83;100.00;101277.41;173350;28;1034;-64
2022/08/20 00:25:13;;;;;;;39.95;22.73;;;;;;;18.83;100.00;101272.13;173333;28;2128;-64
2022/08/20 00:25:19;;;;;;;42.37;23.10;;;;;;;18.84;100.00;101281.72;173373;28;1029;-64
2022/08/20 00:25:27;;;;;;;42.37;23.17;;;;;;;18.83;100.00;101272.13;173349;28;911;-64
2022/08/20 00:25:32;;;;;;;40.78;22.98;;;;;;;18.84;100.00;101273.78;173319;28;971;-64
2022/08/20 00:25:40;;;;;;;41.38;23.35;;;;;;;18.85;100.00;101278.16;173284;28;938;-64
2022/08/20 00:25:46;;;;;;;41.10;23.40;;;;;;;18.85;100.00;101276.34;173358;28;1041;-64
2022/08/20 00:25:52;;;;;;;39.78;23.45;;;;;;;18.85;100.00;101275.50;173323;28;971;-64
2022/08/20 00:25:57;;;;;;;40.03;23.42;;;;;;;18.84;100.00;101273.78;173377;28;879;-64
2022/08/20 00:26:05;;;;;;;40.15;23.42;;;;;;;18.85;100.00;101278.16;173343;28;919;-64
2022/08/20 00:26:12;;;;;;;40.66;23.38;;;;;;;18.85;100.00;101283.44;173330;28;997;-64
2022/08/20 00:26:18;;;;;;;40.80;23.47;;;;;;;18.86;100.00;101277.19;173196;28;1278;-64
2022/08/20 00:26:25;;;;;;;42.37;23.67;;;;;;;18.87;100.00;101273.59;173365;28;954;-64
2022/08/20 00:26:30;;;;;;;41.53;23.60;;;;;;;18.88;100.00;101280.56;173205;28;1281;-65
2022/08/20 00:26:35;;;;;;;40.70;23.50;;;;;;;18.86;100.00;101282.47;173228;28;930;-64
2022/08/20 00:26:41;;;;;;;39.70;23.20;;;;;;;18.86;100.00;101277.19;173212;28;1029;-64
2022/08/20 00:26:47;;;;;;;39.83;23.13;;;;;;;18.86;100.00;101274.56;173218;28;1011;-64
2022/08/20 00:26:53;;;;;;;38.78;22.98;;;;;;;18.86;100.00;101277.19;172436;28;1025;-64
2022/08/20 00:26:58;;;;;;;38.53;23.03;;;;;;;18.87;100.00;101278.88;172561;28;903;-64
2022/08/20 00:27:04;;;;;;;39.50;23.30;;;;;;;18.88;100.00;101280.56;172537;28;1026;-64
2022/08/20 00:27:09;;;;;;;41.07;23.57;;;;;;;18.88;100.00;101280.56;172460;28;1187;-64
2022/08/20 00:27:14;;;;;;;41.63;23.88;;;;;;;18.88;100.00;101281.41;172619;28;990;-64
2022/08/20 00:27:20;;;;;;;42.70;24.13;;;;;;;18.88;100.00;101280.56;172655;28;915;-64
2022/08/20 00:27:25;;;;;;;44.47;24.10;;;;;;;18.87;100.00;101274.44;172652;28;1210;-64
2022/08/20 00:27:32;;;;;;;45.28;23.90;;;;;;;18.88;100.00;101280.56;172666;28;1104;-63
2022/08/20 00:27:37;;;;;;;44.10;23.80;;;;;;;18.88;100.00;101278.78;172581;28;907;-64
2022/08/20 00:27:43;;;;;;;43.33;23.77;;;;;;;18.88;100.00;101280.56;172632;28;1038;-64
2022/08/20 00:27:48;;;;;;;43.08;23.50;;;;;;;18.88;100.00;101280.56;172565;28;1464;-64
2022/08/20 00:27:56;;;;;;;40.55;23.50;;;;;;;18.88;100.00;101269.97;172625;28;1054;-64
2022/08/20 00:28:03;;;;;;;39.43;23.70;;;;;;;18.88;100.00;101276.13;172645;28;891;-63
2022/08/20 00:28:10;;;;;;;39.63;23.73;;;;;;;18.89;100.00;101279.63;172643;28;995;-64
2022/08/20 00:28:16;;;;;;;41.63;23.87;;;;;;;18.89;100.00;101274.34;172585;28;1033;-64
2022/08/20 00:28:22;;;;;;;42.50;23.77;;;;;;;18.89;100.00;101279.63;172644;28;915;-64
2022/08/20 00:28:27;;;;;;;42.37;23.63;;;;;;;18.89;100.00;101271.69;172677;28;844;-64
2022/08/20 00:28:32;;;;;;;43.65;23.77;;;;;;;18.89;100.00;101276.97;172637;28;867;-64
2022/08/20 00:28:39;;;;;;;43.57;23.77;;;;;;;18.90;100.00;101278.66;172618;28;1101;-64
2022/08/20 00:28:46;;;;;;;39.80;23.27;;;;;;;18.90;100.00;101283.94;172660;28;1093;-64
2022/08/20 00:28:51;;;;;;;39.55;23.40;;;;;;;18.90;100.00;101278.66;172942;28;1085;-64
2022/08/20 00:28:57;;;;;;;39.13;23.23;;;;;;;18.90;100.00;101281.31;173379;28;876;-65
2022/08/20 00:29:02;;;;;;;40.50;23.40;;;;;;;18.89;100.00;101283.09;173217;28;911;-64
2022/08/20 00:29:08;;;;;;;41.53;23.55;;;;;;;18.90;100.00;101283.94;173317;28;1038;-64
2022/08/20 00:29:15;;;;;;;43.40;23.90;;;;;;;18.90;100.00;101276.03;173326;28;832;-64
2022/08/20 00:29:21;;;;;;;43.36;23.98;;;;;;;18.90;100.00;101283.94;173314;28;942;-64
2022/08/20 00:29:26;;;;;;;43.92;24.40;;;;;;;18.90;100.00;101278.66;173347;28;993;-64
2022/08/20 00:29:32;;;;;;;42.78;24.42;;;;;;;18.90;100.00;101278.66;173310;28;1057;-64
2022/08/20 00:29:37;;;;;;;42.20;24.13;;;;;;;18.90;100.00;101278.66;173314;28;1249;-64
2022/08/20 00:29:42;;;;;;;42.15;24.15;;;;;;;18.90;100.00;101278.66;173254;28;1104;-64
2022/08/20 00:29:48;;;;;;;42.87;24.20;;;;;;;18.90;100.00;101283.94;173286;28;966;-64
2022/08/20 00:29:53;;;;;;;41.67;24.00;;;;;;;18.90;100.00;101278.66;173320;28;1045;-64
2022/08/20 00:29:58;;;;;;;42.20;23.85;;;;;;;18.89;100.00;101277.81;173356;28;860;-64
2022/08/20 00:30:08;;;;;;;41.90;23.67;;;;;;;18.89;100.00;101276.97;173320;28;1041;-64
2022/08/20 00:30:15;;;;;;;40.94;23.43;;;;;;;18.90;100.00;101278.66;173328;28;1068;-64
2022/08/20 00:30:21;;;;;;;41.28;23.48;;;;;;;18.90;100.00;101284.81;173317;28;975;-65
2022/08/20 00:30:26;;;;;;;42.43;23.57;;;;;;;18.91;100.00;101280.34;173339;28;887;-65
2022/08/20 00:30:34;;;;;;;43.23;23.93;;;;;;;18.90;100.00;101278.66;173329;28;915;-64
2022/08/20 00:30:43;;;;;;;43.45;23.93;;;;;;;18.91;100.00;101277.69;173228;28;1445;-64
2022/08/20 00:30:48;;;;;;;43.57;24.20;;;;;;;18.92;100.00;101282.03;173279;28;1140;-65
2022/08/20 00:30:54;;;;;;;44.40;24.33;;;;;;;18.92;100.00;101276.75;173297;28;1037;-65
2022/08/20 00:31:04;;;;;;;42.83;23.97;;;;;;;18.92;100.00;101282.03;172576;28;927;-64
2022/08/20 00:31:16;;;;;;;42.24;23.99;;;;;;;18.92;100.00;101276.75;172583;28;1244;-64
2022/08/20 00:31:24;;;;;;;41.11;23.60;;;;;;;18.92;100.00;101279.38;172625;28;1270;-64
2022/08/20 00:31:29;;;;;;;41.30;23.53;;;;;;;18.92;100.00;101282.03;172691;28;895;-64
2022/08/20 00:31:35;;;;;;;41.60;23.48;;;;;;;18.85;100.00;101272.88;172638;28;879;-64
2022/08/20 00:31:40;;;;;;;43.13;23.50;;;;;;;18.88;100.00;101285.84;172642;28;1234;-65
2022/08/20 00:31:46;;;;;;;43.58;23.45;;;;;;;18.89;100.00;101282.28;172529;28;1097;-65
2022/08/20 00:31:51;;;;;;;43.78;23.70;;;;;;;18.79;100.00;101282.91;172537;28;719;-65